createdAt,value
2023-01-27T00:00:52.131Z,0.80
2023-01-27T00:03:23.760Z,0.90
2023-01-27T00:05:50.988Z,0.90
2023-01-27T00:08:18.704Z,0.90
2023-01-27T00:10:45.965Z,0.90
2023-01-27T00:13:32.053Z,0.90
2023-01-27T00:15:59.429Z,0.90
2023-01-27T00:18:26.540Z,0.90
2023-01-27T00:21:12.344Z,0.90
2023-01-27T00:23:57.983Z,0.90
2023-01-27T00:26:25.264Z,0.90
2023-01-27T00:28:52.287Z,0.90
2023-01-27T00:31:38.550Z,1.00
2023-01-27T00:34:12.025Z,1.00
2023-01-27T00:36:41.588Z,1.00
2023-01-27T00:39:10.550Z,1.00
2023-01-27T00:41:38.351Z,1.00
2023-01-27T00:44:13.536Z,1.00
2023-01-27T00:46:42.307Z,1.00
2023-01-27T00:49:10.553Z,1.00
2023-01-27T00:51:37.941Z,1.00
2023-01-27T00:54:05.548Z,1.00
2023-01-27T00:56:33.453Z,1.00
2023-01-27T00:59:01.084Z,1.00
2023-01-27T01:01:28.620Z,0.90
2023-01-27T01:03:55.912Z,0.90
2023-01-27T01:06:23.117Z,0.90
2023-01-27T01:08:51.464Z,0.90
2023-01-27T01:11:23.359Z,0.90
2023-01-27T01:13:50.496Z,1.00
2023-01-27T01:16:23.108Z,0.90
2023-01-27T01:18:50.337Z,0.90
2023-01-27T01:21:17.693Z,0.90
2023-01-27T01:23:45.883Z,0.90
2023-01-27T01:26:15.853Z,0.90
2023-01-27T01:28:44.681Z,0.90
2023-01-27T01:31:14.867Z,0.90
2023-01-27T01:33:41.845Z,0.90
2023-01-27T01:36:11.655Z,0.90
2023-01-27T01:38:39.268Z,0.90
2023-01-27T01:41:10.290Z,0.80
2023-01-27T01:43:37.251Z,0.80
2023-01-27T01:46:06.214Z,0.80
2023-01-27T01:48:56.640Z,0.80
2023-01-27T01:51:29.908Z,0.80
2023-01-27T01:54:04.255Z,0.80
2023-01-27T01:56:54.670Z,0.70
2023-01-27T01:59:33.526Z,0.70
2023-01-27T02:02:04.970Z,0.80
2023-01-27T02:04:37.063Z,0.80
2023-01-27T02:07:41.949Z,0.80
2023-01-27T02:10:09.882Z,0.80
2023-01-27T02:12:37.185Z,0.80
2023-01-27T02:15:06.131Z,0.80
2023-01-27T02:17:33.559Z,0.80
2023-01-27T02:20:22.883Z,0.80
2023-01-27T02:23:06.289Z,0.80
2023-01-27T02:25:35.984Z,0.80
2023-01-27T02:28:05.855Z,0.80
2023-01-27T02:30:33.754Z,0.80
2023-01-27T02:33:01.152Z,0.80
2023-01-27T02:35:36.654Z,0.80
2023-01-27T02:38:06.887Z,0.80
2023-01-27T02:40:36.565Z,0.80
2023-01-27T02:43:04.990Z,0.80
2023-01-27T02:45:32.037Z,0.90
2023-01-27T02:47:59.436Z,0.90
2023-01-27T02:50:26.716Z,0.90
2023-01-27T02:52:53.965Z,0.90
2023-01-27T02:55:20.897Z,0.90
2023-01-27T02:57:49.896Z,0.90
2023-01-27T03:00:17.372Z,0.90
2023-01-27T03:02:44.727Z,0.90
2023-01-27T03:05:12.167Z,0.90
2023-01-27T03:07:39.640Z,0.90
2023-01-27T03:10:07.209Z,0.90
2023-01-27T03:12:34.528Z,0.80
2023-01-27T03:15:20.275Z,0.80
2023-01-27T03:18:06.412Z,0.80
2023-01-27T03:20:33.374Z,0.80
2023-01-27T03:23:00.624Z,0.80
2023-01-27T03:25:27.601Z,0.80
2023-01-27T03:27:55.580Z,0.80
2023-01-27T03:30:22.622Z,0.80
2023-01-27T03:32:49.842Z,0.80
2023-01-27T03:35:17.667Z,0.70
2023-01-27T03:38:04.038Z,0.70
2023-01-27T03:40:49.947Z,0.70
2023-01-27T03:43:35.670Z,0.70
2023-01-27T03:46:20.816Z,0.70
2023-01-27T03:48:52.735Z,0.70
2023-01-27T03:51:21.852Z,0.70
2023-01-27T03:53:49.534Z,0.70
2023-01-27T03:56:18.086Z,0.70
2023-01-27T03:58:45.576Z,0.70
2023-01-27T04:01:15.507Z,0.80
2023-01-27T04:04:01.672Z,0.80
2023-01-27T04:06:50.088Z,0.80
2023-01-27T04:09:22.187Z,0.80
2023-01-27T04:11:55.245Z,0.80
2023-01-27T04:14:25.630Z,0.80
2023-01-27T04:16:54.593Z,0.90
2023-01-27T04:19:22.006Z,0.90
2023-01-27T04:21:49.246Z,0.80
2023-01-27T04:24:17.444Z,0.80
2023-01-27T04:26:45.681Z,0.80
2023-01-27T04:29:13.844Z,0.80
2023-01-27T04:31:41.069Z,0.70
2023-01-27T04:34:10.562Z,0.70
2023-01-27T04:36:37.543Z,0.70
2023-01-27T04:39:04.766Z,0.70
2023-01-27T04:41:31.739Z,0.60
2023-01-27T04:43:58.943Z,0.50
2023-01-27T04:46:26.107Z,0.50
2023-01-27T04:48:53.907Z,0.50
2023-01-27T04:51:20.851Z,0.50
2023-01-27T04:53:48.184Z,0.40
2023-01-27T04:56:24.594Z,0.40
2023-01-27T04:58:52.404Z,0.40
2023-01-27T05:01:19.638Z,0.40
2023-01-27T05:03:46.900Z,0.40
2023-01-27T05:06:13.997Z,0.40
2023-01-27T05:08:41.597Z,0.40
2023-01-27T05:11:08.701Z,0.40
2023-01-27T05:13:36.010Z,0.40
2023-01-27T05:16:08.404Z,0.40
2023-01-27T05:18:36.204Z,0.30
2023-01-27T05:21:03.785Z,0.30
2023-01-27T05:23:37.238Z,0.30
2023-01-27T05:26:16.942Z,0.30
2023-01-27T05:28:45.719Z,0.40
2023-01-27T05:31:19.292Z,0.30
2023-01-27T05:33:48.487Z,0.20
2023-01-27T05:36:17.994Z,0.20
2023-01-27T05:38:45.453Z,0.20
2023-01-27T05:41:14.265Z,0.10
2023-01-27T05:43:43.124Z,0.10
2023-01-27T05:46:19.612Z,0.10
2023-01-27T05:48:49.815Z,0.10
2023-01-27T05:51:18.975Z,0.00
2023-01-27T05:53:46.838Z,0.00
2023-01-27T05:56:16.947Z,0.00
2023-01-27T05:58:44.854Z,-0.10
2023-01-27T06:01:17.617Z,-0.10
2023-01-27T06:03:45.809Z,-0.10
2023-01-27T06:06:14.675Z,-0.10
2023-01-27T06:08:42.745Z,-0.10
2023-01-27T06:11:09.947Z,-0.10
2023-01-27T06:13:38.990Z,-0.10
2023-01-27T06:16:08.726Z,-0.10
2023-01-27T06:18:37.324Z,-0.10
2023-01-27T06:21:10.643Z,-0.10
2023-01-27T06:23:38.657Z,0.00
2023-01-27T06:26:09.770Z,0.10
2023-01-27T06:28:38.146Z,0.10
2023-01-27T06:31:17.129Z,0.10
2023-01-27T06:33:45.139Z,0.10
2023-01-27T06:36:15.110Z,0.10
2023-01-27T06:38:42.980Z,0.10
2023-01-27T06:41:10.713Z,0.20
2023-01-27T06:43:38.036Z,0.30
2023-01-27T06:46:06.161Z,0.30
2023-01-27T06:48:34.063Z,0.40
2023-01-27T06:51:01.267Z,0.40
2023-01-27T06:53:28.651Z,0.40
2023-01-27T06:56:00.495Z,0.50
2023-01-27T06:58:28.524Z,0.60
2023-01-27T07:00:56.702Z,0.60
2023-01-27T07:03:24.317Z,0.70
2023-01-27T07:05:52.541Z,0.90
2023-01-27T07:08:19.888Z,0.90
2023-01-27T07:10:46.886Z,0.90
2023-01-27T07:13:15.208Z,0.90
2023-01-27T07:15:42.957Z,0.90
2023-01-27T07:18:12.378Z,0.90
2023-01-27T07:20:42.374Z,1.00
2023-01-27T07:23:10.215Z,1.00
2023-01-27T07:25:37.603Z,1.10
2023-01-27T07:28:05.916Z,1.20
2023-01-27T07:30:38.075Z,1.30
2023-01-27T07:33:11.192Z,1.40
2023-01-27T07:35:39.477Z,1.50
2023-01-27T07:38:07.278Z,1.60
2023-01-27T07:40:35.668Z,1.70
2023-01-27T07:43:03.735Z,1.70
2023-01-27T07:45:31.082Z,1.90
2023-01-27T07:48:06.142Z,2.00
2023-01-27T07:50:33.348Z,2.00
2023-01-27T07:53:02.455Z,2.10
2023-01-27T07:55:30.207Z,2.20
2023-01-27T07:57:57.875Z,2.40
2023-01-27T08:00:25.397Z,2.60
2023-01-27T08:02:54.255Z,2.80
2023-01-27T08:05:22.922Z,3.00
2023-01-27T08:07:51.482Z,3.10
2023-01-27T08:10:19.606Z,3.20
2023-01-27T08:12:47.137Z,3.30
2023-01-27T08:15:16.035Z,3.50
2023-01-27T08:17:44.596Z,3.70
2023-01-27T08:20:15.836Z,3.60
2023-01-27T08:22:53.695Z,3.50
2023-01-27T08:25:23.537Z,3.40
2023-01-27T08:27:52.299Z,3.50
2023-01-27T08:30:19.829Z,3.70
2023-01-27T08:32:47.816Z,3.80
2023-01-27T08:35:26.518Z,3.70
2023-01-27T08:37:57.346Z,3.80
2023-01-27T08:40:28.016Z,3.80
2023-01-27T08:42:58.367Z,3.90
2023-01-27T08:45:26.359Z,3.80
2023-01-27T08:47:54.768Z,3.90
2023-01-27T08:50:22.449Z,3.90
2023-01-27T08:52:52.350Z,3.80
2023-01-27T08:55:23.711Z,3.80
2023-01-27T08:58:03.754Z,3.80
2023-01-27T09:00:32.642Z,3.90
2023-01-27T09:03:12.832Z,3.80
2023-01-27T09:09:11.167Z,3.80
2023-01-27T09:11:42.495Z,3.40
2023-01-27T09:14:10.390Z,3.40
2023-01-27T09:16:37.683Z,3.50
2023-01-27T09:19:04.799Z,3.50
2023-01-27T09:21:32.154Z,3.60
2023-01-27T09:23:59.236Z,3.40
2023-01-27T09:26:26.537Z,3.20
2023-01-27T09:28:53.530Z,3.30
2023-01-27T09:31:20.908Z,3.40
2023-01-27T09:33:47.979Z,3.60
2023-01-27T09:36:20.282Z,3.70
2023-01-27T09:39:02.699Z,3.80
2023-01-27T09:41:30.037Z,4.00
2023-01-27T09:43:56.976Z,4.20
2023-01-27T09:46:47.313Z,4.30
2023-01-27T09:49:47.468Z,4.50
2023-01-27T09:52:20.953Z,4.60
2023-01-27T09:54:59.625Z,4.70
2023-01-27T09:57:54.065Z,4.90
2023-01-27T10:00:42.866Z,4.70
2023-01-27T10:03:48.201Z,4.90
2023-01-27T10:06:19.770Z,4.90
2023-01-27T10:09:24.900Z,4.80
2023-01-27T10:12:10.711Z,4.80
2023-01-27T10:15:02.769Z,4.60
2023-01-27T10:18:14.070Z,4.70
2023-01-27T10:21:23.699Z,4.80
2023-01-27T10:23:56.479Z,4.80
2023-01-27T10:26:30.605Z,4.90
2023-01-27T10:29:10.158Z,4.90
2023-01-27T10:32:00.351Z,4.80
2023-01-27T10:34:34.400Z,4.60
2023-01-27T10:37:26.298Z,4.50
2023-01-27T10:40:11.167Z,4.60
2023-01-27T10:42:44.723Z,4.60
2023-01-27T10:45:28.830Z,4.50
2023-01-27T10:48:11.343Z,4.50
2023-01-27T10:50:46.810Z,4.50
2023-01-27T10:53:22.170Z,4.30
2023-01-27T10:56:04.645Z,4.10
2023-01-27T10:58:55.415Z,4.00
2023-01-27T11:01:36.246Z,4.10
2023-01-27T11:04:06.550Z,4.00
2023-01-27T11:06:38.599Z,3.80
2023-01-27T11:09:26.199Z,3.90
2023-01-27T11:11:56.128Z,3.80
2023-01-27T11:14:41.723Z,3.90
2023-01-27T11:17:24.563Z,3.70
2023-01-27T11:20:29.641Z,3.60
2023-01-27T11:23:18.148Z,3.70
2023-01-27T11:26:12.156Z,3.50
2023-01-27T11:29:06.462Z,3.60
2023-01-27T11:32:00.043Z,3.60
2023-01-27T11:35:03.933Z,3.60
2023-01-27T11:37:42.762Z,3.60
2023-01-27T11:40:36.550Z,3.90
2023-01-27T11:43:05.091Z,3.90
2023-01-27T11:45:36.082Z,3.90
2023-01-27T11:48:08.052Z,3.70
2023-01-27T11:50:36.610Z,3.50
2023-01-27T11:53:25.497Z,3.50
2023-01-27T11:55:58.623Z,3.50
2023-01-27T11:58:28.454Z,3.60
2023-01-27T12:01:01.564Z,3.60
2023-01-27T12:03:47.125Z,3.60
2023-01-27T12:06:18.866Z,3.60
2023-01-27T12:08:49.764Z,3.50
2023-01-27T12:11:22.954Z,3.40
2023-01-27T12:14:00.232Z,3.50
2023-01-27T12:16:40.867Z,3.60
2023-01-27T12:19:22.323Z,3.70
2023-01-27T12:22:11.214Z,3.70
2023-01-27T12:25:04.453Z,3.50
2023-01-27T12:27:41.051Z,3.60
2023-01-27T12:30:22.287Z,3.60
2023-01-27T12:32:49.720Z,3.50
2023-01-27T12:35:30.696Z,3.30
2023-01-27T12:38:14.319Z,3.50
2023-01-27T12:40:44.795Z,3.40
2023-01-27T12:43:20.000Z,3.40
2023-01-27T12:46:10.235Z,3.20
2023-01-27T12:48:47.979Z,3.20
2023-01-27T12:51:22.142Z,3.10
2023-01-27T12:54:22.941Z,3.20
2023-01-27T12:56:53.281Z,3.30
2023-01-27T12:59:23.597Z,3.50
2023-01-27T13:02:27.239Z,3.50
2023-01-27T13:05:02.252Z,3.40
2023-01-27T13:07:37.922Z,3.40
2023-01-27T13:10:15.998Z,3.30
2023-01-27T13:12:53.835Z,3.10
2023-01-27T13:15:23.846Z,3.10
2023-01-27T13:17:54.936Z,3.20
2023-01-27T13:20:33.813Z,3.20
2023-01-27T13:23:19.944Z,3.30
2023-01-27T13:26:06.906Z,3.20
2023-01-27T13:28:52.872Z,3.20
2023-01-27T13:31:33.112Z,3.10
2023-01-27T13:34:17.685Z,3.00
2023-01-27T13:37:33.180Z,3.10
2023-01-27T13:40:22.597Z,2.90
2023-01-27T13:43:29.134Z,2.80
2023-01-27T13:46:08.719Z,2.70
2023-01-27T13:48:42.800Z,2.60
2023-01-27T13:51:18.091Z,2.60
2023-01-27T13:53:47.746Z,2.70
2023-01-27T13:56:15.001Z,2.80
2023-01-27T13:59:09.169Z,2.70
2023-01-27T14:02:12.703Z,2.60
2023-01-27T14:05:01.086Z,2.60
2023-01-27T14:08:15.317Z,2.50
2023-01-27T14:11:11.391Z,2.50
2023-01-27T14:13:50.927Z,2.50
2023-01-27T14:16:21.703Z,2.40
2023-01-27T14:18:59.283Z,2.40
2023-01-27T14:21:59.207Z,2.50
2023-01-27T14:25:00.939Z,2.50
2023-01-27T14:27:47.271Z,2.40
2023-01-27T14:30:27.712Z,2.30
2023-01-27T14:33:15.833Z,2.30
2023-01-27T14:35:46.375Z,2.20
2023-01-27T14:38:21.833Z,2.20
2023-01-27T14:41:36.577Z,2.20
2023-01-27T14:44:13.998Z,2.20
2023-01-27T14:47:01.196Z,2.20
2023-01-27T14:49:41.945Z,2.20
2023-01-27T14:52:41.996Z,2.20
2023-01-27T14:55:28.958Z,2.10
2023-01-27T14:58:15.072Z,2.20
2023-01-27T15:01:02.767Z,2.30
2023-01-27T15:03:50.638Z,2.30
2023-01-27T15:06:43.163Z,2.20
2023-01-27T15:09:22.484Z,2.20
2023-01-27T15:12:09.524Z,2.10
2023-01-27T15:15:03.063Z,2.00
2023-01-27T15:17:41.916Z,2.00
2023-01-27T15:20:39.518Z,2.00
2023-01-27T15:23:26.230Z,2.00
2023-01-27T15:26:00.138Z,1.90
2023-01-27T15:28:32.397Z,2.00
2023-01-27T15:31:11.526Z,1.90
2023-01-27T15:33:51.129Z,1.80
2023-01-27T15:36:27.472Z,1.90
2023-01-27T15:39:09.810Z,1.90
2023-01-27T15:42:09.840Z,1.90
2023-01-27T15:45:02.162Z,1.90
2023-01-27T15:47:37.338Z,1.90
2023-01-27T15:50:19.018Z,1.80
2023-01-27T15:52:48.246Z,1.80
2023-01-27T15:55:34.804Z,1.90
2023-01-27T15:58:10.601Z,1.90
2023-01-27T16:00:42.780Z,1.90
2023-01-27T16:03:43.937Z,1.90
2023-01-27T16:06:17.348Z,1.90
2023-01-27T16:08:55.709Z,2.00
2023-01-27T16:11:28.630Z,1.90
2023-01-27T16:14:16.439Z,1.80
2023-01-27T16:16:52.612Z,1.90
2023-01-27T16:19:23.036Z,1.90
2023-01-27T16:21:57.693Z,1.90
2023-01-27T16:24:41.799Z,1.90
2023-01-27T16:27:14.420Z,2.00
2023-01-27T16:29:47.564Z,1.90
2023-01-27T16:32:20.290Z,1.90
2023-01-27T16:35:15.561Z,1.80
2023-01-27T16:38:00.216Z,1.90
2023-01-27T16:40:29.277Z,1.80
2023-01-27T16:43:08.867Z,1.80
2023-01-27T16:46:05.391Z,1.90
2023-01-27T16:48:43.360Z,1.90
2023-01-27T16:51:25.392Z,1.90
2023-01-27T16:53:54.963Z,1.80
2023-01-27T16:56:26.588Z,1.80
2023-01-27T16:59:00.650Z,1.80
2023-01-27T17:01:48.449Z,1.80
2023-01-27T17:04:30.320Z,1.90
2023-01-27T17:07:11.968Z,2.00
2023-01-27T17:10:00.079Z,1.90
2023-01-27T17:12:27.254Z,1.90
2023-01-27T17:14:54.748Z,1.80
2023-01-27T17:17:24.998Z,1.80
2023-01-27T17:20:02.247Z,1.80
2023-01-27T17:22:38.909Z,1.80
2023-01-27T17:25:15.589Z,1.80
2023-01-27T17:27:45.019Z,1.80
2023-01-27T17:30:18.376Z,1.80
2023-01-27T17:32:55.515Z,1.70
2023-01-27T17:35:28.420Z,1.80
2023-01-27T17:38:22.126Z,1.80
2023-01-27T17:40:52.184Z,1.80
2023-01-27T17:43:32.910Z,1.70
2023-01-27T17:46:06.149Z,1.70
2023-01-27T17:48:35.766Z,1.60
2023-01-27T17:51:02.736Z,1.60
2023-01-27T17:53:30.286Z,1.50
2023-01-27T17:55:57.410Z,1.60
2023-01-27T17:58:27.655Z,1.50
2023-01-27T18:00:57.199Z,1.50
2023-01-27T18:03:36.587Z,1.50
2023-01-27T18:06:06.610Z,1.40
2023-01-27T18:08:35.405Z,1.50
2023-01-27T18:11:20.740Z,1.50
2023-01-27T18:13:53.667Z,1.50
2023-01-27T18:16:23.657Z,1.40
2023-01-27T18:18:51.205Z,1.30
2023-01-27T18:21:23.698Z,1.30
2023-01-27T18:23:56.828Z,1.30
2023-01-27T18:26:32.546Z,1.50
2023-01-27T18:29:22.585Z,1.40
2023-01-27T18:31:56.198Z,1.40
2023-01-27T18:34:26.711Z,1.30
2023-01-27T18:37:03.602Z,1.30
2023-01-27T18:39:39.596Z,1.30
2023-01-27T18:42:16.069Z,1.40
2023-01-27T18:44:43.692Z,1.40
2023-01-27T18:47:19.485Z,1.40
2023-01-27T18:49:56.489Z,1.50
2023-01-27T18:52:23.751Z,1.40
2023-01-27T18:54:56.494Z,1.30
2023-01-27T18:57:23.500Z,1.30
2023-01-27T18:59:50.748Z,1.40
2023-01-27T19:02:17.870Z,1.40
2023-01-27T19:04:45.463Z,1.40
2023-01-27T19:07:15.800Z,1.30
2023-01-27T19:09:47.896Z,1.30
2023-01-27T19:12:15.453Z,1.30
2023-01-27T19:14:42.708Z,1.40
2023-01-27T19:17:17.979Z,1.40
2023-01-27T19:19:45.870Z,1.40
2023-01-27T19:22:17.581Z,1.30
2023-01-27T19:24:48.542Z,1.30
2023-01-27T19:27:17.699Z,1.30
2023-01-27T19:29:45.109Z,1.40
2023-01-27T19:32:14.364Z,1.30
2023-01-27T19:34:41.938Z,1.40
2023-01-27T19:37:18.474Z,1.50
2023-01-27T19:39:49.210Z,1.40
2023-01-27T19:42:16.689Z,1.40
2023-01-27T19:44:44.014Z,1.30
2023-01-27T19:47:13.368Z,1.30
2023-01-27T19:49:41.082Z,1.30
2023-01-27T19:52:10.089Z,1.30
2023-01-27T19:54:37.379Z,1.30
2023-01-27T19:57:05.074Z,1.20
2023-01-27T19:59:32.446Z,1.30
2023-01-27T20:01:59.406Z,1.30
2023-01-27T20:04:27.278Z,1.30
2023-01-27T20:06:54.291Z,1.30
2023-01-27T20:09:21.465Z,1.30
2023-01-27T20:11:48.443Z,1.30
2023-01-27T20:14:19.283Z,1.30
2023-01-27T20:16:47.399Z,1.30
2023-01-27T20:19:16.101Z,1.40
2023-01-27T20:21:44.036Z,1.30
2023-01-27T20:24:15.627Z,1.40
2023-01-27T20:26:42.625Z,1.40
2023-01-27T20:29:09.931Z,1.30
2023-01-27T20:31:39.218Z,1.40
2023-01-27T20:34:06.638Z,1.40
2023-01-27T20:36:33.561Z,1.40
2023-01-27T20:39:00.810Z,1.40
2023-01-27T20:41:28.342Z,1.40
2023-01-27T20:43:57.718Z,1.40
2023-01-27T20:46:25.100Z,1.40
2023-01-27T20:48:52.567Z,1.40
2023-01-27T20:51:19.916Z,1.40
2023-01-27T20:53:47.252Z,1.40
2023-01-27T20:56:19.447Z,1.40
2023-01-27T20:58:47.845Z,1.40
2023-01-27T21:01:18.091Z,1.40
2023-01-27T21:03:45.426Z,1.30
2023-01-27T21:06:13.970Z,1.40
2023-01-27T21:08:42.736Z,1.40
2023-01-27T21:11:13.153Z,1.50
2023-01-27T21:13:40.540Z,1.50
2023-01-27T21:16:08.293Z,1.40
2023-01-27T21:18:36.569Z,1.50
2023-01-27T21:21:04.219Z,1.50
2023-01-27T21:23:33.649Z,1.50
2023-01-27T21:26:11.646Z,1.50
2023-01-27T21:28:38.908Z,1.50
2023-01-27T21:31:10.811Z,1.50
2023-01-27T21:33:39.409Z,1.50
2023-01-27T21:36:10.339Z,1.50
2023-01-27T21:38:38.595Z,1.40
2023-01-27T21:41:10.972Z,1.40
2023-01-27T21:43:57.323Z,1.40
2023-01-27T21:46:24.417Z,1.40
2023-01-27T21:48:51.658Z,1.30
2023-01-27T21:51:18.616Z,1.30
2023-01-27T21:53:45.999Z,1.30
2023-01-27T21:56:13.445Z,1.20
2023-01-27T21:58:40.697Z,1.30
2023-01-27T22:01:09.729Z,1.30
2023-01-27T22:03:38.183Z,1.30
2023-01-27T22:06:08.960Z,1.30
2023-01-27T22:08:37.058Z,1.40
2023-01-27T22:11:11.574Z,1.30
2023-01-27T22:13:43.440Z,1.30
2023-01-27T22:16:16.205Z,1.20
2023-01-27T22:18:43.865Z,1.20
2023-01-27T22:21:10.913Z,1.10
2023-01-27T22:23:38.279Z,1.20
2023-01-27T22:26:09.154Z,1.10
2023-01-27T22:28:36.436Z,1.20
2023-01-27T22:31:03.439Z,1.20
2023-01-27T22:33:32.147Z,1.30
2023-01-27T22:36:01.187Z,1.30
2023-01-27T22:38:28.494Z,1.20
2023-01-27T22:40:56.943Z,1.20
2023-01-27T22:43:24.362Z,1.20
2023-01-27T22:45:51.334Z,1.20
2023-01-27T22:48:18.571Z,1.20
2023-01-27T22:50:45.687Z,1.10
2023-01-27T22:53:12.992Z,1.20
2023-01-27T22:55:39.967Z,1.10
2023-01-27T22:58:07.937Z,1.20
2023-01-27T23:00:34.931Z,1.20
2023-01-27T23:03:02.189Z,1.20
2023-01-27T23:05:29.234Z,1.10
2023-01-27T23:07:56.479Z,1.10
2023-01-27T23:10:23.793Z,1.10
2023-01-27T23:12:51.279Z,1.10
2023-01-27T23:15:18.355Z,1.10
2023-01-27T23:17:47.289Z,1.20
2023-01-27T23:20:14.911Z,1.20
2023-01-27T23:22:43.287Z,1.10
2023-01-27T23:25:11.939Z,1.10
2023-01-27T23:27:40.506Z,1.00
2023-01-27T23:30:09.918Z,1.00
2023-01-27T23:32:38.492Z,1.00
2023-01-27T23:35:06.059Z,1.00
2023-01-27T23:37:33.482Z,0.90
2023-01-27T23:40:00.423Z,1.10
2023-01-27T23:42:27.656Z,1.00
2023-01-27T23:44:54.612Z,1.00
2023-01-27T23:47:24.894Z,0.90
2023-01-27T23:49:51.936Z,0.90
2023-01-27T23:52:19.176Z,0.80
2023-01-27T23:54:46.217Z,0.80
2023-01-27T23:57:13.565Z,0.80
2023-01-27T23:59:41.360Z,0.90
